sensor_id;sensor_type;location;lat;lon;timestamp;temperature;humidity
5846;DHT22;2949;50.778;7.094;2024-01-10T00:01:16;-7.40;99.90
5846;DHT22;2949;50.778;7.094;2024-01-10T00:03:42;-7.40;99.90
5846;DHT22;2949;50.778;7.094;2024-01-10T00:06:08;-7.40;99.90
5846;DHT22;2949;50.778;7.094;2024-01-10T00:08:33;-7.40;99.90
5846;DHT22;2949;50.778;7.094;2024-01-10T00:10:59;-7.50;99.90
5846;DHT22;2949;50.778;7.094;2024-01-10T00:13:24;-7.60;99.90
5846;DHT22;2949;50.778;7.094;2024-01-10T00:15:50;-7.60;99.90
5846;DHT22;2949;50.778;7.094;2024-01-10T00:18:15;-7.60;99.90
5846;DHT22;2949;50.778;7.094;2024-01-10T00:20:41;-7.70;99.90
5846;DHT22;2949;50.778;7.094;2024-01-10T00:23:06;-7.60;99.90
5846;DHT22;2949;50.778;7.094;2024-01-10T00:25:32;-7.70;99.90
5846;DHT22;2949;50.778;7.094;2024-01-10T00:27:58;-7.70;99.90
5846;DHT22;2949;50.778;7.094;2024-01-10T00:30:25;-7.70;99.90
5846;DHT22;2949;50.778;7.094;2024-01-10T00:32:51;-7.70;99.90
5846;DHT22;2949;50.778;7.094;2024-01-10T00:35:16;-7.70;99.90
5846;DHT22;2949;50.778;7.094;2024-01-10T00:37:42;-7.70;99.90
5846;DHT22;2949;50.778;7.094;2024-01-10T00:40:08;-7.70;99.90
5846;DHT22;2949;50.778;7.094;2024-01-10T00:42:34;-7.70;99.90
5846;DHT22;2949;50.778;7.094;2024-01-10T00:45:00;-7.60;99.90
5846;DHT22;2949;50.778;7.094;2024-01-10T00:47:25;-7.60;99.90
5846;DHT22;2949;50.778;7.094;2024-01-10T00:49:51;-7.70;99.90
5846;DHT22;2949;50.778;7.094;2024-01-10T00:52:16;-7.70;99.90
5846;DHT22;2949;50.778;7.094;2024-01-10T00:54:42;-7.80;99.90
5846;DHT22;2949;50.778;7.094;2024-01-10T00:57:09;-7.80;99.90
5846;DHT22;2949;50.778;7.094;2024-01-10T00:59:35;-7.80;99.90
5846;DHT22;2949;50.778;7.094;2024-01-10T01:02:00;-7.80;99.90
5846;DHT22;2949;50.778;7.094;2024-01-10T01:04:26;-7.80;99.90
5846;DHT22;2949;50.778;7.094;2024-01-10T01:06:51;-7.80;99.90
5846;DHT22;2949;50.778;7.094;2024-01-10T01:09:17;-7.80;99.90
5846;DHT22;2949;50.778;7.094;2024-01-10T01:11:44;-7.90;99.90
5846;DHT22;2949;50.778;7.094;2024-01-10T01:14:10;-7.80;99.90
5846;DHT22;2949;50.778;7.094;2024-01-10T01:16:35;-7.90;99.90
5846;DHT22;2949;50.778;7.094;2024-01-10T01:19:01;-7.80;99.90
5846;DHT22;2949;50.778;7.094;2024-01-10T01:21:26;-7.80;99.90
5846;DHT22;2949;50.778;7.094;2024-01-10T01:23:52;-7.90;99.90
5846;DHT22;2949;50.778;7.094;2024-01-10T01:26:17;-7.90;99.90
5846;DHT22;2949;50.778;7.094;2024-01-10T01:28:43;-7.90;99.90
5846;DHT22;2949;50.778;7.094;2024-01-10T01:31:08;-7.80;99.90
5846;DHT22;2949;50.778;7.094;2024-01-10T01:33:34;-7.80;99.90
5846;DHT22;2949;50.778;7.094;2024-01-10T01:36:00;-7.80;99.90
5846;DHT22;2949;50.778;7.094;2024-01-10T01:38:26;-7.80;99.90
5846;DHT22;2949;50.778;7.094;2024-01-10T01:40:52;-7.80;99.90
5846;DHT22;2949;50.778;7.094;2024-01-10T01:43:24;-7.80;99.90
5846;DHT22;2949;50.778;7.094;2024-01-10T01:45:54;-7.90;99.90
5846;DHT22;2949;50.778;7.094;2024-01-10T01:48:22;-8.00;99.90
5846;DHT22;2949;50.778;7.094;2024-01-10T01:50:50;-8.00;99.90
5846;DHT22;2949;50.778;7.094;2024-01-10T01:53:17;-8.00;99.90
5846;DHT22;2949;50.778;7.094;2024-01-10T01:55:45;-8.00;99.90
5846;DHT22;2949;50.778;7.094;2024-01-10T01:58:11;-7.90;99.90
5846;DHT22;2949;50.778;7.094;2024-01-10T02:00:38;-7.90;99.90
5846;DHT22;2949;50.778;7.094;2024-01-10T02:03:09;-7.90;99.90
5846;DHT22;2949;50.778;7.094;2024-01-10T02:05:36;-7.90;99.90
5846;DHT22;2949;50.778;7.094;2024-01-10T02:08:02;-7.90;99.90
5846;DHT22;2949;50.778;7.094;2024-01-10T02:10:27;-7.80;99.90
5846;DHT22;2949;50.778;7.094;2024-01-10T02:12:53;-7.90;99.90
5846;DHT22;2949;50.778;7.094;2024-01-10T02:15:19;-7.90;99.90
5846;DHT22;2949;50.778;7.094;2024-01-10T02:17:44;-8.00;99.90
5846;DHT22;2949;50.778;7.094;2024-01-10T02:20:11;-8.00;99.90
5846;DHT22;2949;50.778;7.094;2024-01-10T02:22:37;-8.00;99.90
5846;DHT22;2949;50.778;7.094;2024-01-10T02:25:13;-8.00;99.90
5846;DHT22;2949;50.778;7.094;2024-01-10T02:27:40;-8.00;99.90
5846;DHT22;2949;50.778;7.094;2024-01-10T02:30:07;-8.00;99.90
5846;DHT22;2949;50.778;7.094;2024-01-10T02:32:33;-8.00;99.90
5846;DHT22;2949;50.778;7.094;2024-01-10T02:34:59;-8.00;99.90
5846;DHT22;2949;50.778;7.094;2024-01-10T02:37:24;-8.00;99.90
5846;DHT22;2949;50.778;7.094;2024-01-10T02:39:50;-8.00;99.90
5846;DHT22;2949;50.778;7.094;2024-01-10T02:42:16;-8.10;99.90
5846;DHT22;2949;50.778;7.094;2024-01-10T02:44:42;-8.10;99.90
5846;DHT22;2949;50.778;7.094;2024-01-10T02:47:08;-8.20;99.90
5846;DHT22;2949;50.778;7.094;2024-01-10T02:49:33;-8.20;99.90
5846;DHT22;2949;50.778;7.094;2024-01-10T02:51:59;-8.20;99.90
5846;DHT22;2949;50.778;7.094;2024-01-10T02:54:25;-8.20;99.90
5846;DHT22;2949;50.778;7.094;2024-01-10T02:56:51;-8.20;99.90
5846;DHT22;2949;50.778;7.094;2024-01-10T02:59:17;-8.20;99.90
5846;DHT22;2949;50.778;7.094;2024-01-10T03:01:42;-8.20;99.90
5846;DHT22;2949;50.778;7.094;2024-01-10T03:04:08;-8.20;99.90
5846;DHT22;2949;50.778;7.094;2024-01-10T03:06:34;-8.20;99.90
5846;DHT22;2949;50.778;7.094;2024-01-10T03:08:59;-8.20;99.90
5846;DHT22;2949;50.778;7.094;2024-01-10T03:11:25;-8.20;99.90
5846;DHT22;2949;50.778;7.094;2024-01-10T03:14:00;-8.10;99.90
5846;DHT22;2949;50.778;7.094;2024-01-10T03:16:25;-8.10;99.90
5846;DHT22;2949;50.778;7.094;2024-01-10T03:18:51;-8.00;99.90
5846;DHT22;2949;50.778;7.094;2024-01-10T03:21:17;-8.00;99.90
5846;DHT22;2949;50.778;7.094;2024-01-10T03:23:48;-8.00;99.90
5846;DHT22;2949;50.778;7.094;2024-01-10T03:26:13;-8.00;99.90
5846;DHT22;2949;50.778;7.094;2024-01-10T03:28:39;-8.00;99.90
5846;DHT22;2949;50.778;7.094;2024-01-10T03:31:04;-8.00;99.90
5846;DHT22;2949;50.778;7.094;2024-01-10T03:33:30;-8.00;99.90
5846;DHT22;2949;50.778;7.094;2024-01-10T03:35:55;-7.90;99.90
5846;DHT22;2949;50.778;7.094;2024-01-10T03:38:21;-7.90;99.90
5846;DHT22;2949;50.778;7.094;2024-01-10T03:40:46;-7.90;99.90
5846;DHT22;2949;50.778;7.094;2024-01-10T03:43:12;-7.90;99.90
5846;DHT22;2949;50.778;7.094;2024-01-10T03:45:37;-7.90;99.90
5846;DHT22;2949;50.778;7.094;2024-01-10T03:48:03;-7.90;99.90
5846;DHT22;2949;50.778;7.094;2024-01-10T03:50:29;-7.90;99.90
5846;DHT22;2949;50.778;7.094;2024-01-10T03:52:54;-7.90;99.90
5846;DHT22;2949;50.778;7.094;2024-01-10T03:55:20;-7.90;99.90
5846;DHT22;2949;50.778;7.094;2024-01-10T03:57:45;-8.00;99.90
5846;DHT22;2949;50.778;7.094;2024-01-10T04:00:11;-8.00;99.90
5846;DHT22;2949;50.778;7.094;2024-01-10T04:02:37;-8.00;99.90
5846;DHT22;2949;50.778;7.094;2024-01-10T04:05:07;-8.00;99.90
5846;DHT22;2949;50.778;7.094;2024-01-10T04:07:34;-8.00;99.90
5846;DHT22;2949;50.778;7.094;2024-01-10T04:10:00;-8.00;99.90
5846;DHT22;2949;50.778;7.094;2024-01-10T04:12:25;-8.00;99.90
5846;DHT22;2949;50.778;7.094;2024-01-10T04:14:51;-8.00;99.90
5846;DHT22;2949;50.778;7.094;2024-01-10T04:17:16;-7.90;99.90
5846;DHT22;2949;50.778;7.094;2024-01-10T04:19:42;-7.90;99.90
5846;DHT22;2949;50.778;7.094;2024-01-10T04:22:07;-7.80;99.90
5846;DHT22;2949;50.778;7.094;2024-01-10T04:24:33;-7.80;99.90
5846;DHT22;2949;50.778;7.094;2024-01-10T04:26:58;-7.70;99.90
5846;DHT22;2949;50.778;7.094;2024-01-10T04:29:24;-7.70;99.90
5846;DHT22;2949;50.778;7.094;2024-01-10T04:31:50;-7.60;99.90
5846;DHT22;2949;50.778;7.094;2024-01-10T04:34:15;-7.50;99.90
5846;DHT22;2949;50.778;7.094;2024-01-10T04:36:41;-7.50;99.90
5846;DHT22;2949;50.778;7.094;2024-01-10T04:39:06;-7.40;99.90
5846;DHT22;2949;50.778;7.094;2024-01-10T04:41:31;-7.30;99.90
5846;DHT22;2949;50.778;7.094;2024-01-10T04:43:57;-7.40;99.90
5846;DHT22;2949;50.778;7.094;2024-01-10T04:46:23;-7.40;99.90
5846;DHT22;2949;50.778;7.094;2024-01-10T04:48:48;-7.50;99.90
5846;DHT22;2949;50.778;7.094;2024-01-10T04:51:14;-7.50;99.90
5846;DHT22;2949;50.778;7.094;2024-01-10T04:53:40;-7.50;99.90
5846;DHT22;2949;50.778;7.094;2024-01-10T04:56:05;-7.50;99.90
5846;DHT22;2949;50.778;7.094;2024-01-10T04:58:31;-7.50;99.90
5846;DHT22;2949;50.778;7.094;2024-01-10T05:00:58;-7.60;99.90
5846;DHT22;2949;50.778;7.094;2024-01-10T05:03:23;-7.60;99.90
5846;DHT22;2949;50.778;7.094;2024-01-10T05:05:49;-7.60;99.90
5846;DHT22;2949;50.778;7.094;2024-01-10T05:08:14;-7.60;99.90
5846;DHT22;2949;50.778;7.094;2024-01-10T05:10:40;-7.70;99.90
5846;DHT22;2949;50.778;7.094;2024-01-10T05:13:06;-7.70;99.90
5846;DHT22;2949;50.778;7.094;2024-01-10T05:15:31;-7.80;99.90
5846;DHT22;2949;50.778;7.094;2024-01-10T05:17:57;-7.80;99.90
5846;DHT22;2949;50.778;7.094;2024-01-10T05:20:22;-7.90;99.90
5846;DHT22;2949;50.778;7.094;2024-01-10T05:22:48;-8.00;99.90
5846;DHT22;2949;50.778;7.094;2024-01-10T05:25:13;-8.10;99.90
5846;DHT22;2949;50.778;7.094;2024-01-10T05:27:39;-8.10;99.90
5846;DHT22;2949;50.778;7.094;2024-01-10T05:30:05;-8.10;99.90
5846;DHT22;2949;50.778;7.094;2024-01-10T05:32:30;-8.10;99.90
5846;DHT22;2949;50.778;7.094;2024-01-10T05:34:56;-8.20;99.90
5846;DHT22;2949;50.778;7.094;2024-01-10T05:37:22;-8.20;99.90
5846;DHT22;2949;50.778;7.094;2024-01-10T05:39:47;-8.20;99.90
5846;DHT22;2949;50.778;7.094;2024-01-10T05:42:13;-8.20;99.90
5846;DHT22;2949;50.778;7.094;2024-01-10T05:44:39;-8.20;99.90
5846;DHT22;2949;50.778;7.094;2024-01-10T05:47:05;-8.20;99.90
5846;DHT22;2949;50.778;7.094;2024-01-10T05:49:31;-8.20;99.90
5846;DHT22;2949;50.778;7.094;2024-01-10T05:51:58;-8.20;99.90
5846;DHT22;2949;50.778;7.094;2024-01-10T05:54:23;-8.20;99.90
5846;DHT22;2949;50.778;7.094;2024-01-10T05:56:49;-8.20;99.90
5846;DHT22;2949;50.778;7.094;2024-01-10T05:59:15;-8.20;99.90
5846;DHT22;2949;50.778;7.094;2024-01-10T06:01:42;-8.20;99.90
5846;DHT22;2949;50.778;7.094;2024-01-10T06:04:08;-8.20;99.90
5846;DHT22;2949;50.778;7.094;2024-01-10T06:06:33;-8.20;99.90
5846;DHT22;2949;50.778;7.094;2024-01-10T06:09:00;-8.30;99.90
5846;DHT22;2949;50.778;7.094;2024-01-10T06:11:25;-8.20;99.90
5846;DHT22;2949;50.778;7.094;2024-01-10T06:13:50;-8.30;99.90
5846;DHT22;2949;50.778;7.094;2024-01-10T06:16:16;-8.30;99.90
5846;DHT22;2949;50.778;7.094;2024-01-10T06:18:42;-8.30;99.90
5846;DHT22;2949;50.778;7.094;2024-01-10T06:21:08;-8.30;99.90
5846;DHT22;2949;50.778;7.094;2024-01-10T06:23:33;-8.30;99.90
5846;DHT22;2949;50.778;7.094;2024-01-10T06:25:59;-8.30;99.90
5846;DHT22;2949;50.778;7.094;2024-01-10T06:28:24;-8.30;99.90
5846;DHT22;2949;50.778;7.094;2024-01-10T06:30:50;-8.30;99.90
5846;DHT22;2949;50.778;7.094;2024-01-10T06:33:15;-8.30;99.90
5846;DHT22;2949;50.778;7.094;2024-01-10T06:35:41;-8.30;99.90
5846;DHT22;2949;50.778;7.094;2024-01-10T06:38:10;-8.30;99.90
5846;DHT22;2949;50.778;7.094;2024-01-10T06:40:36;-8.30;99.90
5846;DHT22;2949;50.778;7.094;2024-01-10T06:43:02;-8.30;99.90
5846;DHT22;2949;50.778;7.094;2024-01-10T06:45:28;-8.30;99.90
5846;DHT22;2949;50.778;7.094;2024-01-10T06:47:54;-8.30;99.90
5846;DHT22;2949;50.778;7.094;2024-01-10T06:50:19;-8.20;99.90
5846;DHT22;2949;50.778;7.094;2024-01-10T06:52:45;-8.30;99.90
5846;DHT22;2949;50.778;7.094;2024-01-10T06:55:11;-8.30;99.90
5846;DHT22;2949;50.778;7.094;2024-01-10T06:57:37;-8.30;99.90
5846;DHT22;2949;50.778;7.094;2024-01-10T07:00:06;-8.30;99.90
5846;DHT22;2949;50.778;7.094;2024-01-10T07:02:37;-8.30;99.90
5846;DHT22;2949;50.778;7.094;2024-01-10T07:05:03;-8.30;99.90
5846;DHT22;2949;50.778;7.094;2024-01-10T07:07:31;-8.30;99.90
5846;DHT22;2949;50.778;7.094;2024-01-10T07:09:56;-8.20;99.90
5846;DHT22;2949;50.778;7.094;2024-01-10T07:12:22;-8.20;99.90
5846;DHT22;2949;50.778;7.094;2024-01-10T07:14:47;-8.20;99.90
5846;DHT22;2949;50.778;7.094;2024-01-10T07:17:13;-8.20;99.90
5846;DHT22;2949;50.778;7.094;2024-01-10T07:19:38;-8.20;99.90
5846;DHT22;2949;50.778;7.094;2024-01-10T07:22:05;-8.20;99.90
5846;DHT22;2949;50.778;7.094;2024-01-10T07:24:31;-8.20;99.90
5846;DHT22;2949;50.778;7.094;2024-01-10T07:26:56;-8.20;99.90
5846;DHT22;2949;50.778;7.094;2024-01-10T07:29:22;-8.10;99.90
5846;DHT22;2949;50.778;7.094;2024-01-10T07:31:47;-8.10;99.90
5846;DHT22;2949;50.778;7.094;2024-01-10T07:34:13;-8.10;99.90
5846;DHT22;2949;50.778;7.094;2024-01-10T07:36:42;-8.00;99.90
5846;DHT22;2949;50.778;7.094;2024-01-10T07:39:10;-8.00;99.90
5846;DHT22;2949;50.778;7.094;2024-01-10T07:41:36;-8.00;99.90
5846;DHT22;2949;50.778;7.094;2024-01-10T07:44:01;-8.00;99.90
5846;DHT22;2949;50.778;7.094;2024-01-10T07:46:28;-8.00;99.90
5846;DHT22;2949;50.778;7.094;2024-01-10T07:48:54;-8.00;99.90
5846;DHT22;2949;50.778;7.094;2024-01-10T07:51:19;-7.90;99.90
5846;DHT22;2949;50.778;7.094;2024-01-10T07:53:45;-7.90;99.90
5846;DHT22;2949;50.778;7.094;2024-01-10T07:56:10;-7.80;99.90
5846;DHT22;2949;50.778;7.094;2024-01-10T07:58:38;-7.70;99.90
5846;DHT22;2949;50.778;7.094;2024-01-10T08:01:04;-7.70;99.90
5846;DHT22;2949;50.778;7.094;2024-01-10T08:03:29;-7.60;99.90
5846;DHT22;2949;50.778;7.094;2024-01-10T08:05:55;-7.60;99.90
5846;DHT22;2949;50.778;7.094;2024-01-10T08:08:20;-7.50;99.90
5846;DHT22;2949;50.778;7.094;2024-01-10T08:10:46;-7.40;99.90
5846;DHT22;2949;50.778;7.094;2024-01-10T08:13:11;-7.30;99.90
5846;DHT22;2949;50.778;7.094;2024-01-10T08:15:37;-7.30;99.90
5846;DHT22;2949;50.778;7.094;2024-01-10T08:18:03;-7.10;99.90
5846;DHT22;2949;50.778;7.094;2024-01-10T08:20:28;-7.00;99.90
5846;DHT22;2949;50.778;7.094;2024-01-10T08:22:54;-6.90;99.90
5846;DHT22;2949;50.778;7.094;2024-01-10T08:25:19;-6.70;99.90
5846;DHT22;2949;50.778;7.094;2024-01-10T08:27:45;-6.60;99.90
5846;DHT22;2949;50.778;7.094;2024-01-10T08:30:11;-6.50;99.90
5846;DHT22;2949;50.778;7.094;2024-01-10T08:32:36;-6.40;99.90
5846;DHT22;2949;50.778;7.094;2024-01-10T08:35:03;-6.30;99.90
5846;DHT22;2949;50.778;7.094;2024-01-10T08:37:34;-6.20;99.90
5846;DHT22;2949;50.778;7.094;2024-01-10T08:40:00;-6.10;99.90
5846;DHT22;2949;50.778;7.094;2024-01-10T08:42:26;-6.00;99.90
5846;DHT22;2949;50.778;7.094;2024-01-10T08:44:53;-5.90;99.90
5846;DHT22;2949;50.778;7.094;2024-01-10T08:47:18;-5.80;99.90
5846;DHT22;2949;50.778;7.094;2024-01-10T08:49:45;-5.60;99.90
5846;DHT22;2949;50.778;7.094;2024-01-10T08:52:10;-5.50;99.90
5846;DHT22;2949;50.778;7.094;2024-01-10T08:54:37;-5.40;99.90
5846;DHT22;2949;50.778;7.094;2024-01-10T08:57:02;-5.30;99.90
5846;DHT22;2949;50.778;7.094;2024-01-10T08:59:28;-5.10;99.90
5846;DHT22;2949;50.778;7.094;2024-01-10T09:01:54;-5.00;99.90
5846;DHT22;2949;50.778;7.094;2024-01-10T09:04:19;-4.90;99.90
5846;DHT22;2949;50.778;7.094;2024-01-10T09:06:45;-4.80;99.90
5846;DHT22;2949;50.778;7.094;2024-01-10T09:09:11;-4.70;99.90
5846;DHT22;2949;50.778;7.094;2024-01-10T09:11:38;-4.60;99.90
5846;DHT22;2949;50.778;7.094;2024-01-10T09:14:03;-4.60;99.90
5846;DHT22;2949;50.778;7.094;2024-01-10T09:16:30;-4.60;99.90
5846;DHT22;2949;50.778;7.094;2024-01-10T09:18:55;-4.50;99.90
5846;DHT22;2949;50.778;7.094;2024-01-10T09:21:23;-4.40;99.90
5846;DHT22;2949;50.778;7.094;2024-01-10T09:23:49;-4.40;99.90
5846;DHT22;2949;50.778;7.094;2024-01-10T09:26:17;-4.30;99.90
5846;DHT22;2949;50.778;7.094;2024-01-10T09:28:43;-4.10;99.90
5846;DHT22;2949;50.778;7.094;2024-01-10T09:31:09;-4.00;99.90
5846;DHT22;2949;50.778;7.094;2024-01-10T09:33:35;-3.80;99.90
5846;DHT22;2949;50.778;7.094;2024-01-10T09:36:00;-3.70;99.90
5846;DHT22;2949;50.778;7.094;2024-01-10T09:38:26;-3.50;99.90
5846;DHT22;2949;50.778;7.094;2024-01-10T09:40:53;-3.40;99.90
5846;DHT22;2949;50.778;7.094;2024-01-10T09:43:23;-3.20;99.90
5846;DHT22;2949;50.778;7.094;2024-01-10T09:45:49;-2.90;99.90
5846;DHT22;2949;50.778;7.094;2024-01-10T09:48:16;-2.60;99.90
5846;DHT22;2949;50.778;7.094;2024-01-10T09:50:42;-2.30;99.90
5846;DHT22;2949;50.778;7.094;2024-01-10T09:53:12;-2.10;99.90
5846;DHT22;2949;50.778;7.094;2024-01-10T09:55:41;-1.80;99.90
5846;DHT22;2949;50.778;7.094;2024-01-10T09:58:08;-1.70;99.90
5846;DHT22;2949;50.778;7.094;2024-01-10T10:00:36;-1.60;99.90
5846;DHT22;2949;50.778;7.094;2024-01-10T10:03:09;-1.40;99.90
5846;DHT22;2949;50.778;7.094;2024-01-10T10:05:39;-1.30;99.90
5846;DHT22;2949;50.778;7.094;2024-01-10T10:08:09;-1.00;99.90
5846;DHT22;2949;50.778;7.094;2024-01-10T10:10:35;-0.60;99.90
5846;DHT22;2949;50.778;7.094;2024-01-10T10:13:00;-0.30;99.90
5846;DHT22;2949;50.778;7.094;2024-01-10T10:15:27;0.00;99.90
5846;DHT22;2949;50.778;7.094;2024-01-10T10:17:54;0.20;99.90
5846;DHT22;2949;50.778;7.094;2024-01-10T10:20:20;0.10;99.90
5846;DHT22;2949;50.778;7.094;2024-01-10T10:23:05;-0.10;99.90
5846;DHT22;2949;50.778;7.094;2024-01-10T10:25:35;-0.30;99.90
5846;DHT22;2949;50.778;7.094;2024-01-10T10:28:04;-0.50;99.90
5846;DHT22;2949;50.778;7.094;2024-01-10T10:30:33;-0.60;99.90
5846;DHT22;2949;50.778;7.094;2024-01-10T10:32:59;-0.80;99.90
5846;DHT22;2949;50.778;7.094;2024-01-10T10:35:24;-1.00;99.90
5846;DHT22;2949;50.778;7.094;2024-01-10T10:37:51;-1.10;99.90
5846;DHT22;2949;50.778;7.094;2024-01-10T10:40:17;-1.20;99.90
5846;DHT22;2949;50.778;7.094;2024-01-10T10:42:55;-1.20;99.90
5846;DHT22;2949;50.778;7.094;2024-01-10T10:45:21;-1.30;99.90
5846;DHT22;2949;50.778;7.094;2024-01-10T10:47:56;-1.30;99.90
5846;DHT22;2949;50.778;7.094;2024-01-10T10:50:23;-1.40;99.90
5846;DHT22;2949;50.778;7.094;2024-01-10T10:52:50;-1.40;99.90
5846;DHT22;2949;50.778;7.094;2024-01-10T10:55:17;-1.50;99.90
5846;DHT22;2949;50.778;7.094;2024-01-10T10:57:47;-1.50;99.90
5846;DHT22;2949;50.778;7.094;2024-01-10T11:00:21;-1.50;99.90
5846;DHT22;2949;50.778;7.094;2024-01-10T11:02:56;-1.50;99.90
5846;DHT22;2949;50.778;7.094;2024-01-10T11:05:23;-1.50;99.90
5846;DHT22;2949;50.778;7.094;2024-01-10T11:07:49;-1.60;99.90
5846;DHT22;2949;50.778;7.094;2024-01-10T11:10:38;-1.60;99.90
5846;DHT22;2949;50.778;7.094;2024-01-10T11:13:22;-1.70;99.90
5846;DHT22;2949;50.778;7.094;2024-01-10T11:16:13;-1.70;99.90
5846;DHT22;2949;50.778;7.094;2024-01-10T11:24:11;-1.30;99.90
5846;DHT22;2949;50.778;7.094;2024-01-10T11:26:37;-1.10;99.90
5846;DHT22;2949;50.778;7.094;2024-01-10T11:29:04;-0.90;99.90
5846;DHT22;2949;50.778;7.094;2024-01-10T11:31:32;-0.80;99.90
5846;DHT22;2949;50.778;7.094;2024-01-10T11:33:58;-0.60;99.90
5846;DHT22;2949;50.778;7.094;2024-01-10T11:36:25;-0.30;99.90
5846;DHT22;2949;50.778;7.094;2024-01-10T11:41:23;-0.10;99.90
5846;DHT22;2949;50.778;7.094;2024-01-10T11:46:33;0.10;99.90
5846;DHT22;2949;50.778;7.094;2024-01-10T11:48:59;0.10;99.90
5846;DHT22;2949;50.778;7.094;2024-01-10T11:51:24;0.30;99.90
5846;DHT22;2949;50.778;7.094;2024-01-10T11:53:50;0.30;98.00
5846;DHT22;2949;50.778;7.094;2024-01-10T11:56:18;0.30;97.60
5846;DHT22;2949;50.778;7.094;2024-01-10T11:59:02;0.20;97.70
5846;DHT22;2949;50.778;7.094;2024-01-10T12:01:36;0.10;98.60
5846;DHT22;2949;50.778;7.094;2024-01-10T12:04:02;0.10;97.40
5846;DHT22;2949;50.778;7.094;2024-01-10T12:06:29;0.10;97.40
5846;DHT22;2949;50.778;7.094;2024-01-10T12:08:55;0.00;97.20
5846;DHT22;2949;50.778;7.094;2024-01-10T12:11:21;-0.10;98.00
5846;DHT22;2949;50.778;7.094;2024-01-10T12:13:47;-0.10;97.30
5846;DHT22;2949;50.778;7.094;2024-01-10T12:16:14;-0.10;97.20
5846;DHT22;2949;50.778;7.094;2024-01-10T12:18:41;-0.20;97.20
5846;DHT22;2949;50.778;7.094;2024-01-10T12:21:07;-0.30;97.70
5846;DHT22;2949;50.778;7.094;2024-01-10T12:23:34;-0.30;97.50
5846;DHT22;2949;50.778;7.094;2024-01-10T12:26:03;-0.30;97.60
5846;DHT22;2949;50.778;7.094;2024-01-10T12:28:38;-0.30;97.60
5846;DHT22;2949;50.778;7.094;2024-01-10T12:31:06;-0.30;97.80
5846;DHT22;2949;50.778;7.094;2024-01-10T12:33:37;-0.20;97.40
5846;DHT22;2949;50.778;7.094;2024-01-10T12:36:10;-0.20;97.80
5846;DHT22;2949;50.778;7.094;2024-01-10T12:38:40;-0.20;98.10
5846;DHT22;2949;50.778;7.094;2024-01-10T12:41:05;-0.20;98.60
5846;DHT22;2949;50.778;7.094;2024-01-10T12:43:34;-0.10;98.90
5846;DHT22;2949;50.778;7.094;2024-01-10T12:46:10;0.00;98.40
5846;DHT22;2949;50.778;7.094;2024-01-10T12:48:40;0.10;97.50
5846;DHT22;2949;50.778;7.094;2024-01-10T12:51:15;0.10;97.50
5846;DHT22;2949;50.778;7.094;2024-01-10T12:53:43;0.10;97.60
5846;DHT22;2949;50.778;7.094;2024-01-10T12:56:10;0.10;97.90
5846;DHT22;2949;50.778;7.094;2024-01-10T12:58:39;0.30;97.10
5846;DHT22;2949;50.778;7.094;2024-01-10T13:01:05;0.40;96.90
5846;DHT22;2949;50.778;7.094;2024-01-10T13:03:31;0.30;97.30
5846;DHT22;2949;50.778;7.094;2024-01-10T13:05:57;0.40;97.50
5846;DHT22;2949;50.778;7.094;2024-01-10T13:08:24;0.50;97.10
5846;DHT22;2949;50.778;7.094;2024-01-10T13:10:49;0.60;96.70
5846;DHT22;2949;50.778;7.094;2024-01-10T13:13:16;0.70;96.90
5846;DHT22;2949;50.778;7.094;2024-01-10T13:15:43;0.70;96.90
5846;DHT22;2949;50.778;7.094;2024-01-10T13:18:09;0.80;96.50
5846;DHT22;2949;50.778;7.094;2024-01-10T13:20:38;0.80;96.50
5846;DHT22;2949;50.778;7.094;2024-01-10T13:23:04;0.80;95.50
5846;DHT22;2949;50.778;7.094;2024-01-10T13:25:30;0.70;96.10
5846;DHT22;2949;50.778;7.094;2024-01-10T13:27:55;0.70;96.50
5846;DHT22;2949;50.778;7.094;2024-01-10T13:30:23;0.70;96.40
5846;DHT22;2949;50.778;7.094;2024-01-10T13:32:48;0.60;96.80
5846;DHT22;2949;50.778;7.094;2024-01-10T13:35:15;0.50;97.10
5846;DHT22;2949;50.778;7.094;2024-01-10T13:37:42;0.50;97.00
5846;DHT22;2949;50.778;7.094;2024-01-10T13:40:08;0.50;96.60
5846;DHT22;2949;50.778;7.094;2024-01-10T13:42:36;0.50;96.40
5846;DHT22;2949;50.778;7.094;2024-01-10T13:45:04;0.50;96.20
5846;DHT22;2949;50.778;7.094;2024-01-10T13:47:30;0.40;96.60
5846;DHT22;2949;50.778;7.094;2024-01-10T13:49:56;0.40;96.30
5846;DHT22;2949;50.778;7.094;2024-01-10T13:52:21;0.30;97.00
5846;DHT22;2949;50.778;7.094;2024-01-10T13:54:47;0.30;97.10
5846;DHT22;2949;50.778;7.094;2024-01-10T13:57:13;0.30;97.50
5846;DHT22;2949;50.778;7.094;2024-01-10T13:59:38;0.40;97.30
5846;DHT22;2949;50.778;7.094;2024-01-10T14:02:04;0.50;96.40
5846;DHT22;2949;50.778;7.094;2024-01-10T14:04:30;0.50;96.40
5846;DHT22;2949;50.778;7.094;2024-01-10T14:06:55;0.60;96.10
5846;DHT22;2949;50.778;7.094;2024-01-10T14:09:21;0.70;96.40
5846;DHT22;2949;50.778;7.094;2024-01-10T14:11:46;0.70;96.30
5846;DHT22;2949;50.778;7.094;2024-01-10T14:14:14;0.80;96.00
5846;DHT22;2949;50.778;7.094;2024-01-10T14:16:39;0.90;96.00
5846;DHT22;2949;50.778;7.094;2024-01-10T14:19:06;1.00;96.00
5846;DHT22;2949;50.778;7.094;2024-01-10T14:21:32;1.10;95.90
5846;DHT22;2949;50.778;7.094;2024-01-10T14:23:57;1.10;95.60
5846;DHT22;2949;50.778;7.094;2024-01-10T14:26:23;1.10;95.30
5846;DHT22;2949;50.778;7.094;2024-01-10T14:28:51;1.10;94.60
5846;DHT22;2949;50.778;7.094;2024-01-10T14:31:18;1.10;94.70
5846;DHT22;2949;50.778;7.094;2024-01-10T14:33:44;0.90;94.80
5846;DHT22;2949;50.778;7.094;2024-01-10T14:36:10;0.90;95.00
5846;DHT22;2949;50.778;7.094;2024-01-10T14:38:35;0.90;95.10
5846;DHT22;2949;50.778;7.094;2024-01-10T14:41:01;0.80;95.20
5846;DHT22;2949;50.778;7.094;2024-01-10T14:43:26;0.80;95.40
5846;DHT22;2949;50.778;7.094;2024-01-10T14:45:52;0.80;95.40
5846;DHT22;2949;50.778;7.094;2024-01-10T14:48:17;0.80;94.70
5846;DHT22;2949;50.778;7.094;2024-01-10T14:50:43;0.80;94.90
5846;DHT22;2949;50.778;7.094;2024-01-10T14:53:09;0.70;95.10
5846;DHT22;2949;50.778;7.094;2024-01-10T14:55:34;0.60;95.60
5846;DHT22;2949;50.778;7.094;2024-01-10T14:58:00;0.50;95.50
5846;DHT22;2949;50.778;7.094;2024-01-10T15:00:25;0.50;95.20
5846;DHT22;2949;50.778;7.094;2024-01-10T15:02:51;0.40;95.10
5846;DHT22;2949;50.778;7.094;2024-01-10T15:05:17;0.40;95.30
5846;DHT22;2949;50.778;7.094;2024-01-10T15:07:43;0.30;95.70
5846;DHT22;2949;50.778;7.094;2024-01-10T15:10:09;0.20;95.70
5846;DHT22;2949;50.778;7.094;2024-01-10T15:12:34;0.20;95.50
5846;DHT22;2949;50.778;7.094;2024-01-10T15:15:00;0.10;96.00
5846;DHT22;2949;50.778;7.094;2024-01-10T15:17:27;-0.10;96.30
5846;DHT22;2949;50.778;7.094;2024-01-10T15:19:52;-0.10;96.50
5846;DHT22;2949;50.778;7.094;2024-01-10T15:22:18;-0.30;97.30
5846;DHT22;2949;50.778;7.094;2024-01-10T15:24:44;-0.40;97.50
5846;DHT22;2949;50.778;7.094;2024-01-10T15:27:09;-0.40;97.50
5846;DHT22;2949;50.778;7.094;2024-01-10T15:29:39;-0.40;97.80
5846;DHT22;2949;50.778;7.094;2024-01-10T15:32:05;-0.40;98.10
5846;DHT22;2949;50.778;7.094;2024-01-10T15:34:31;-0.50;98.20
5846;DHT22;2949;50.778;7.094;2024-01-10T15:36:56;-0.50;98.70
5846;DHT22;2949;50.778;7.094;2024-01-10T15:39:22;-0.60;98.80
5846;DHT22;2949;50.778;7.094;2024-01-10T15:41:50;-0.80;99.10
5846;DHT22;2949;50.778;7.094;2024-01-10T15:44:17;-1.00;99.40
5846;DHT22;2949;50.778;7.094;2024-01-10T15:46:43;-1.10;99.70
5846;DHT22;2949;50.778;7.094;2024-01-10T15:49:09;-1.20;99.90
5846;DHT22;2949;50.778;7.094;2024-01-10T15:51:34;-1.30;99.90
5846;DHT22;2949;50.778;7.094;2024-01-10T15:54:00;-1.50;99.90
5846;DHT22;2949;50.778;7.094;2024-01-10T15:56:25;-1.60;99.90
5846;DHT22;2949;50.778;7.094;2024-01-10T15:58:51;-1.80;99.90
5846;DHT22;2949;50.778;7.094;2024-01-10T16:01:17;-2.00;99.90
5846;DHT22;2949;50.778;7.094;2024-01-10T16:03:42;-2.10;99.90
5846;DHT22;2949;50.778;7.094;2024-01-10T16:06:08;-2.30;99.90
5846;DHT22;2949;50.778;7.094;2024-01-10T16:08:35;-2.50;99.90
5846;DHT22;2949;50.778;7.094;2024-01-10T16:11:01;-2.60;99.90